Flight Track Log - Related Links

Times and Time Zones

All times are in EST time to prevent confusion due to time zone crossing. See the EJA922 flight status page for this flight to view local times or setup timezone preferences in your user account.

Time Position Orientation Groundspeed Altitude Reporting Facility
EST Latitude Longitude Course Direction KTS MPH feet Rate Location/Type
Sun 01:17:15 PM 32.2358 -81.1364 55° Northeast 293 337 6,000  Level Jacksonville Center
Sun 01:18:15 PM 32.2828 -81.0569 55° Northeast 293 337 9,000 2,750 Climbing Jacksonville Center
Sun 01:19:15 PM 32.3378 -80.9697 53° Northeast 305 351 11,500 2,350 Climbing Jacksonville Center
Sun 01:20:15 PM 32.4028 -80.8603 55° Northeast 355 409 13,700 1,950 Climbing Jacksonville Center
Sun 01:21:15 PM 32.4617 -80.7628 54° Northeast 383 441 15,400 1,900 Climbing Jacksonville Center
Sun 01:22:15 PM 32.5586 -80.6892 33° Northeast 400 460 17,500 1,850 Climbing Jacksonville Center
Sun 01:23:15 PM 32.6661 -80.6247 27° Northeast 412 474 19,100 1,750 Climbing Jacksonville Center
Sun 01:24:15 PM 32.7775 -80.5578 27° Northeast 424 488 21,000 1,600 Climbing Jacksonville Center
Sun 01:25:15 PM 32.8889 -80.4906 27° Northeast 441 507 22,300 1,550 Climbing Jacksonville Center
Sun 01:26:15 PM 33.0211 -80.4103 27° Northeast 461 531 24,100 1,650 Climbing Jacksonville Center
Sun 01:27:15 PM 33.1344 -80.3400 27° Northeast 466 536 25,600 1,350 Climbing Jacksonville Center
Sun 01:28:15 PM 33.2622 -80.2669 26° Northeast 471 542 26,800 1,400 Climbing Jacksonville Center
Sun 01:29:15 PM 33.3839 -80.1886 28° Northeast 483 556 28,400 1,450 Climbing Jacksonville Center
Sun 01:30:15 PM 33.5094 -80.1125 27° Northeast 488 562 29,700 1,350 Climbing Jacksonville Center
Sun 01:31:15 PM 33.6369 -80.0311 28° Northeast 499 574 31,100 1,950 Climbing Jacksonville Center
Sun 01:32:15 PM 33.7647 -79.9522 27° Northeast 504 580 33,600 2,250 Climbing Jacksonville Center
Sun 01:33:15 PM 33.8900 -79.8728 28° Northeast 504 580 35,600 1,700 Climbing Jacksonville Center
Sun 01:34:15 PM 34.0175 -79.7933 27° Northeast 504 580 37,000 700 Climbing Jacksonville Center
Sun 01:35:15 PM 34.1508 -79.7083 28° Northeast 518 596 37,000  Level Jacksonville Center
Sun 01:36:15 PM 34.2864 -79.6256 27° Northeast 527 606 37,000  Level Jacksonville Center
Sun 01:37:31 PM 34.4572 -79.5389 23° Northeast 534 615 37,000  Level Washington Center
Sun 01:38:31 PM 34.6036 -79.4625 23° Northeast 551 634 37,000  Level Washington Center
Sun 01:39:32 PM 34.7500 -79.3861 23° Northeast 562 647 37,000  Level Washington Center
Sun 01:40:32 PM 34.8967 -79.3069 24° Northeast 567 652 37,000  Level Washington Center
Sun 01:41:33 PM 35.0411 -79.2197 26° Northeast 567 652 37,000  Level Washington Center
Sun 01:42:31 PM 35.1858 -79.1269 28° Northeast 579 666 37,000  Level Washington Center
Sun 01:43:31 PM 35.3283 -79.0367 27° Northeast 579 666 37,000  Level Washington Center
Sun 01:44:32 PM 35.4728 -78.9458 27° Northeast 579 666 37,000  Level Washington Center
Sun 01:45:33 PM 35.6192 -78.8522 27° Northeast 579 666 37,000  Level Washington Center
Sun 01:46:33 PM 35.7636 -78.7558 28° Northeast 584 672 37,000  Level Washington Center
Sun 01:47:31 PM 35.9189 -78.6519 28° Northeast 584 672 37,000  Level Washington Center
Sun 01:48:33 PM 36.0631 -78.5572 28° Northeast 584 672 37,000  Level Washington Center
Sun 01:49:33 PM 36.2050 -78.4647 28° Northeast 579 666 37,000  Level Washington Center
Sun 01:50:31 PM 36.3469 -78.3719 28° Northeast 574 661 37,000  Level Washington Center
Sun 01:51:32 PM 36.4933 -78.2739 28° Northeast 574 661 37,000  Level Washington Center
Sun 01:52:33 PM 36.6350 -78.1803 28° Northeast 574 661 37,000  Level Washington Center
Sun 01:53:33 PM 36.7622 -78.0939 29° Northeast 574 661 37,000  Level Washington Center
Sun 01:54:33 PM 36.9061 -77.9944 29° Northeast 574 661 37,000  Level Washington Center
Sun 01:55:33 PM 37.0497 -77.8950 29° Northeast 574 661 37,000 -153 Level Washington Center
Sun 01:56:31 PM 37.1914 -77.8000 28° Northeast 574 661 36,700 -915 Descending Washington Center
Sun 01:57:31 PM 37.3328 -77.7050 28° Northeast 574 661 35,200 -1,328 Descending Washington Center
Sun 01:58:33 PM 37.4722 -77.6094 29° Northeast 574 661 34,000 -590 Descending Washington Center
Sun 01:59:33 PM 37.6156 -77.5108 29° Northeast 574 661 34,000  Level Washington Center
Sun 02:00:34 PM 37.7569 -77.4119 29° Northeast 574 661 34,000  Level Washington Center
Sun 02:01:31 PM 37.9044 -77.3103 29° Northeast 579 666 34,000  Level Washington Center
Sun 02:02:32 PM 38.0456 -77.2133 28° Northeast 579 666 34,000  Level Washington Center
Sun 02:03:32 PM 38.1867 -77.1081 30° Northeast 579 666 34,000 -1,091 Level Washington Center
Sun 02:04:33 PM 38.3442 -77.0000 28° Northeast 579 666 31,800 -2,773 Descending Washington Center
Sun 02:05:31 PM 38.4892 -76.8994 28° Northeast 579 666 28,500 -2,975 Descending Washington Center
Sun 02:06:34 PM 38.6175 -76.8086 29° Northeast 559 643 25,800 -2,450 Descending Washington Center
Sun 02:07:31 PM 38.7144 -76.6772 47° Northeast 513 590 23,600 -2,051 Descending Washington Center
Sun 02:08:31 PM 38.7536 -76.5100 73° East 471 542 21,800 -2,213 Descending Washington Center
Sun 02:09:33 PM 38.7903 -76.3319 75° East 480 552 19,100 -2,361 Descending Washington Center
Sun 02:10:33 PM 38.8286 -76.1539 74° East 505 581 17,000 -2,118 Descending Washington Center
Sun 02:11:32 PM 38.8647 -75.9889 74° East 497 572 14,900 -1,059 Descending Washington Center
Sun 02:12:32 PM 38.9047 -75.8397 71° East 468 539 14,900 -595 Level Washington Center
Sun 02:13:33 PM 38.9986 -75.7333 41° Northeast 426 490 13,700 -989 Descending Washington Center
Sun 02:15:28 PM 39.2167 -75.6667 13° North 370 426 12,000 -583 Descending Philadelphia TRACON
Sun 02:16:28 PM 39.3167 -75.6333 14° North 339 390 12,000  Level Philadelphia TRACON
Sun 02:17:28 PM 39.4000 -75.5667 32° Northeast 331 381 12,000 48 Level Philadelphia TRACON
Sun 02:18:34 PM 39.5000 -75.5333 14° North 338 389 12,100  Climbing Philadelphia TRACON
Sun 02:19:41 PM 39.5833 -75.4667 32° Northeast 338 389 12,000  Descending Philadelphia TRACON
Sun 02:20:35 PM 39.6667 -75.4333 17° North 306 352 12,100 -350 Climbing Philadelphia TRACON
Sun 02:21:41 PM 39.7500 -75.3667 32° Northeast 314 361 11,300 -952 Descending Philadelphia TRACON
Sun 02:22:41 PM 39.8167 -75.3167 30° Northeast 330 380 10,100 -632 Descending Philadelphia TRACON
Sun 02:23:35 PM 39.9000 -75.2833 17° North 297 342 10,100 -316 Level Philadelphia TRACON
Sun 02:24:35 PM 39.9667 -75.2167 37° Northeast 320 368 9,500 -1,250 Descending Philadelphia TRACON
Sun 02:25:35 PM 40.0333 -75.1500 37° Northeast 329 379 7,600 -1,700 Descending Philadelphia TRACON
Sun 02:26:35 PM 40.0833 -75.0667 52° Northeast 265 305 6,100 -1,650 Descending Philadelphia TRACON
Sun 02:27:35 PM 40.1333 -75.0000 46° Northeast 225 259 4,300 -1,500 Descending Philadelphia TRACON
Sun 02:28:35 PM 40.1833 -74.9500 37° Northeast 193 222 3,100 -1,050 Descending Philadelphia TRACON
Sun 02:29:35 PM 40.2167 -74.9167 37° Northeast 141 162 2,200 -842 Descending Philadelphia TRACON
Sun 02:30:29 PM 40.2333 -74.8833 57° Northeast 114 131 1,500 -684 Descending Philadelphia TRACON
Sun 02:31:29 PM 40.2500 -74.8500 57° Northeast 107 123 900 -600 Descending Philadelphia TRACON
Sun 02:33:00 PM 40.2667 -74.8000 45° Northeast  Level FlightAware Approximate
Sun 02:40:00 PM 40.2767 -74.8135 45° Northeast  Level Estimated
Sun 02:41:00 PM 40.2767 -74.8135 45° Northeast  Level Estimated

Login

Don't have an account? Register now (free) for customized features, flight alerts, and more!